Map

Track Data

SID SEASON NUMBER BASIN SUBBASIN NAME ISO_TIME NATURE LAT LON WMO_WIND WMO_PRES WMO_AGENCY TRACK_TYPE DIST2LAND LANDFALL IFLAG USA_AGENCY USA_ATCF_ID USA_LAT USA_LON USA_RECORD USA_STATUS USA_WIND USA_PRES USA_SSHS USA_R34_NE USA_R34_SE USA_R34_SW USA_R34_NW USA_R50_NE USA_R50_SE USA_R50_SW USA_R50_NW USA_R64_NE USA_R64_SE USA_R64_SW USA_R64_NW USA_POCI USA_ROCI USA_RMW USA_EYE TOKYO_LAT TOKYO_LON TOKYO_GRADE TOKYO_WIND TOKYO_PRES TOKYO_R50_DIR TOKYO_R50_LONG TOKYO_R50_SHORT TOKYO_R30_DIR TOKYO_R30_LONG TOKYO_R30_SHORT TOKYO_LAND CMA_LAT CMA_LON CMA_CAT CMA_WIND CMA_PRES HKO_LAT HKO_LON HKO_CAT HKO_WIND HKO_PRES NEWDELHI_LAT NEWDELHI_LON NEWDELHI_GRADE NEWDELHI_WIND NEWDELHI_PRES NEWDELHI_CI NEWDELHI_DP NEWDELHI_POCI REUNION_LAT REUNION_LON REUNION_TYPE REUNION_WIND REUNION_PRES REUNION_TNUM REUNION_CI REUNION_RMW REUNION_R34_NE REUNION_R34_SE REUNION_R34_SW REUNION_R34_NW REUNION_R50_NE REUNION_R50_SE REUNION_R50_SW REUNION_R50_NW REUNION_R64_NE REUNION_R64_SE REUNION_R64_SW REUNION_R64_NW BOM_LAT BOM_LON BOM_TYPE BOM_WIND BOM_PRES BOM_TNUM BOM_CI BOM_RMW BOM_R34_NE BOM_R34_SE BOM_R34_SW BOM_R34_NW BOM_R50_NE BOM_R50_SE BOM_R50_SW BOM_R50_NW BOM_R64_NE BOM_R64_SE BOM_R64_SW BOM_R64_NW BOM_ROCI BOM_POCI BOM_EYE BOM_POS_METHOD BOM_PRES_METHOD NADI_LAT NADI_LON NADI_CAT NADI_WIND NADI_PRES WELLINGTON_LAT WELLINGTON_LON WELLINGTON_WIND WELLINGTON_PRES DS824_LAT DS824_LON DS824_STAGE DS824_WIND DS824_PRES TD9636_LAT TD9636_LON TD9636_STAGE TD9636_WIND TD9636_PRES TD9635_LAT TD9635_LON TD9635_WIND TD9635_PRES TD9635_ROCI NEUMANN_LAT NEUMANN_LON NEUMANN_CLASS NEUMANN_WIND NEUMANN_PRES MLC_LAT MLC_LON MLC_CLASS MLC_WIND MLC_PRES USA_GUST BOM_GUST BOM_GUST_PER REUNION_GUST REUNION_GUST_PER USA_SEAHGT USA_SEARAD_NE USA_SEARAD_SE USA_SEARAD_SW USA_SEARAD_NW STORM_SPEED STORM_DIR
1976350S08103 1977 143 SI WA HARRY 1976-12-15 00:00:00 TS -8.40000 103.000 25 1004 bom main 301 301 O_____O__OO___ jtwc_sh SH031977 -8.40000 103.000 -1 -8.40000 103.000 20 25 1004 1.50000 -8.40000 103.000 TC 20 1004 -8.40000 103.000 1 8 264
1976350S08103 1977 143 SI WA HARRY 1976-12-15 03:00:00 TS -8.44013 102.598 25 1004 bom main 338 338 P_____O__PP___ SH031977 -8.45009 102.593 -1 -8.40000 102.600 20 25 1004 1.50000 -8.45006 102.605 TC 20 1004 -8.45041 102.600 1 8 263
1976350S08103 1977 143 SI WA HARRY 1976-12-15 06:00:00 TS -8.50009 102.227 25 1004 bom main 381 381 O_____O__OP_O_ jtwc_sh SH031977 -8.50000 102.200 -1 -8.50000 102.200 20 25 1004 1.50000 -8.50000 102.200 TC 20 1004 -8.50048 102.210 1 -8.50000 102.600 TC 20 1004 8 263
1976350S08103 1977 143 SI WA HARRY 1976-12-15 09:00:00 TS -8.54096 101.762 25 1003 bom main 420 420 P_____O__PP_P_ SH031977 -8.54997 101.835 -1 -8.50000 101.300 20 25 1003 2.00000 -8.55000 101.785 TC 22 1003 -8.55030 101.840 1 -8.55008 102.195 TC 22 1003 7 262
1976350S08103 1977 143 SI WA HARRY 1976-12-15 12:00:00 TS -8.60000 101.504 25 1003 bom main 455 455 O_____O__OO_O_ jtwc_sh SH031977 -8.60000 101.500 -1 -8.60000 101.400 20 25 1003 2.00000 -8.60000 101.400 TC 25 1003 -8.60000 101.500 1 -8.60000 101.800 TC 25 1003 6 260
1976350S08103 1977 143 SI WA HARRY 1976-12-15 15:00:00 TS -8.64160 101.181 25 1003 bom main 479 479 P_____O__PP_P_ SH031977 -8.64996 101.192 -1 -8.60000 101.000 20 25 1003 2.00000 -8.64995 101.077 TC 25 1002 -8.64974 101.195 1 -8.64998 101.428 TC 25 1002 6 260
1976350S08103 1977 143 SI WA HARRY 1976-12-15 18:00:00 TS -8.69994 100.901 25 1002 bom main 511 511 O_____O__OP_O_ jtwc_sh SH031977 -8.70000 100.900 -1 -8.70000 100.800 20 25 1002 2.00000 -8.70000 100.800 TC 25 1002 -8.69964 100.907 1 -8.70000 101.100 TC 25 1002 5 259
1976350S08103 1977 143 SI WA HARRY 1976-12-15 21:00:00 TS -8.74158 100.642 25 1001 bom main 529 529 P_____O__PP_P_ SH031977 -8.74994 100.615 -1 -8.70000 100.600 20 25 1001 2.00000 -8.74993 100.557 TC 27 1001 -8.74973 100.617 1 -8.74992 100.850 TC 27 1001 6 260
1976350S08103 1977 143 SI WA HARRY 1976-12-16 00:00:00 TS -8.80000 100.350 30 1000 bom main 550 550 O_____O__OO_O_ jtwc_sh SH031977 -8.80000 100.300 -1 -8.80000 100.300 20 30 1000 2.50000 -8.80000 100.300 TC 30 1000 -8.80000 100.300 1 -8.80000 100.600 TC 30 1000 6 261
1976350S08103 1977 143 SI WA HARRY 1976-12-16 03:00:00 TS -8.83897 99.9956 30 1000 bom main 577 577 P_____O__PP_P_ SH031977 -8.85000 99.9150 -1 -8.80000 100.000 20 30 1000 2.50000 -8.85003 99.9575 TC 32 999 -8.83376 99.9286 1 -8.85003 100.258 TC 32 999 7 263
1976350S08103 1977 143 SI WA HARRY 1976-12-16 06:00:00 TS -8.89500 99.6050 30 998 bom main 613 613 O_____O__OP_O_ jtwc_sh SH031977 -8.90000 99.5000 -1 -8.90000 99.6000 20 30 998 2.50000 -8.90000 99.6000 TC 35 998 -8.87001 99.5298 1 -8.90000 99.9000 TC 35 998 7 263
1976350S08103 1977 143 SI WA HARRY 1976-12-16 09:00:00 TS -8.92809 99.2501 30 996 bom main 633 633 P_____O__PP_P_ SH031977 -8.93496 99.0999 -1 -8.90000 99.3000 20 30 996 2.50000 -8.93496 99.2925 TC 37 996 -8.92124 99.1161 1 -8.94246 99.5925 TC 37 996 7 261
1976350S08103 1977 143 SI WA HARRY 1976-12-16 12:00:00 TS -9.00000 98.9000 40 994 bom main 670 670 O_____O__OO_O_ jtwc_sh SH031977 -9.00000 98.7000 -1 -9.00000 99.0000 30 40 994 3.00000 -9.00000 99.0000 TC 40 994 -9.00000 98.7000 1 -9.00000 99.3000 TC 40 995 7 254
1976350S08103 1977 143 SI WA HARRY 1976-12-16 15:00:00 TS -9.12097 98.5771 40 992 bom main 700 700 P_____O__PP_P_ SH031977 -9.13496 98.3000 -1 -9.10000 98.8000 30 40 992 3.00000 -9.14233 98.7450 TC 42 992 -9.12121 98.2879 1 -9.09238 99.0300 TC 42 993 8 248
1976350S08103 1977 143 SI WA HARRY 1976-12-16 18:00:00 TS -9.27833 98.1963 50 990 bom main 746 746 O_____O__OP_O_ jtwc_sh SH031977 -9.30000 97.9000 -1 -9.30000 98.4000 30 50 990 3.50000 -9.30000 98.4000 TC 45 990 -9.26997 97.8776 1 -9.20000 98.7000 TC 45 991 9 251
1976350S08103 1977 143 SI WA HARRY 1976-12-16 21:00:00 TS -9.40693 97.7131 50 988 bom main 790 790 P_____O__PP_P_ SH031977 -9.44998 97.4925 -1 -9.40000 97.8000 30 50 988 3.50000 -9.40778 97.8000 TC 50 987 -9.43373 97.4785 1 -9.30010 98.2150 TC 47 989 10 255
1976350S08103 1977 143 SI WA HARRY 1976-12-17 00:00:00 TS -9.53333 97.2333 55 985 bom main 835 835 O_____O__OO_O_ jtwc_sh SH031977 -9.60000 97.1000 -1 -9.50000 97.2000 30 55 985 4.00000 -9.50000 97.2000 TC 55 985 -9.60000 97.1000 1 -9.40000 97.7000 TC 50 988 9 253
1976350S08103 1977 143 SI WA HARRY 1976-12-17 03:00:00 TS -9.65442 96.8706 55 985 bom main 873 873 P_____O__PP_P_ SH031977 -9.74996 96.7350 -1 -9.60000 96.9000 30 55 985 4.00000 -9.59232 96.8549 TC 55 985 -9.74181 96.7290 1 -9.49244 97.2700 TC 50 988 7 250
1976350S08103 1977 143 SI WA HARRY 1976-12-17 06:00:00 TS -9.78083 96.5471 55 985 bom main 912 912 O_____O__OP_O_ jtwc_sh SH031977 -9.90000 96.4000 -1 -9.70000 96.6000 30 55 985 4.00000 -9.70000 96.6000 TC 55 985 -9.88495 96.3824 1 -9.60000 96.9000 TC 50 988 7 248
1976350S08103 1977 143 SI WA HARRY 1976-12-17 09:00:00 TS -9.91385 96.2287 55 985 bom main 943 943 P_____O__PP_P_ SH031977 -10.0425 96.0775 -1 -9.80000 96.3000 30 55 985 4.00000 -9.82752 96.2775 TC 55 985 -10.0356 96.0696 1 -9.73496 96.5700 TC 50 988 7 243
1976350S08103 1977 143 SI WA HARRY 1976-12-17 12:00:00 TS -10.0833 95.9500 55 985 bom main 975 975 O_____O__OO_O_ jtwc_sh SH031977 -10.2000 95.8000 -1 -10.0000 96.0000 30 55 985 4.00000 -10.0000 96.0000 TC 55 985 -10.2000 95.8000 1 -9.90000 96.3000 TC 50 988 6 233
1976350S08103 1977 143 SI WA HARRY 1976-12-17 15:00:00 TS -10.2743 95.7473 55 985 bom main 1014 1014 P_____O__PP_P_ SH031977 -10.3925 95.5775 -1 -10.2000 95.8000 30 55 985 4.00000 -10.2349 95.8424 TC 72 970 -10.3407 95.6017 1 -10.0850 96.0850 TC 50 988 5 220
1976350S08103 1977 143 SI WA HARRY 1976-12-17 18:00:00 TS -10.5004 95.5903 55 985 bom main 1037 1037 O_____O__OP_O_ jtwc_sh SH031977 -10.6000 95.4000 -1 -10.5000 95.7000 30 55 985 4.00000 -10.5000 95.7000 TC 90 955 -10.5022 95.4417 1 -10.3000 95.9000 TC 50 988 5 217
1976350S08103 1977 143 SI WA HARRY 1976-12-17 21:00:00 TS -10.7079 95.4109 55 985 bom main 1069 1069 P_____O__PP_P_ SH031977 -10.7550 95.2573 -1 -10.8000 95.5000 30 55 985 4.00000 -10.7125 95.4574 TC 72 970 -10.7126 95.2859 1 -10.5125 95.7074 TC 50 988 6 219
1976350S08103 1977 143 SI WA HARRY 1976-12-18 00:00:00 TS -10.9667 95.2000 55 985 bom main 1108 1108 O_____O__OO_O_ jtwc_sh SH031977 -11.0000 95.1000 -1 -11.0000 95.2000 30 55 985 4.00000 -11.0000 95.2000 TC 55 985 -11.0000 95.1000 1 -10.8000 95.5000 TC 50 989 8 210
1976350S08103 1977 143 SI WA HARRY 1976-12-18 03:00:00 TS -11.4260 94.9934 55 985 bom main 1155 1155 P_____O__PP_P_ SH031977 -11.4625 94.8800 -1 -11.5000 95.0000 30 55 985 4.00000 -11.4624 95.0223 TC 52 986 -11.4561 94.9132 1 -11.2125 95.2650 TC 47 989 11 204
1976350S08103 1977 143 SI WA HARRY 1976-12-18 06:00:00 TS -11.9464 94.7467 50 987 bom main 1218 1218 O_____O__OP_O_ jtwc_sh SH031977 -12.0000 94.6000 -1 -12.0000 94.8000 30 50 987 3.50000 -12.0000 94.8000 TC 50 987 -11.9786 94.6802 1 -11.7000 95.0000 TC 45 990 12 207
1976350S08103 1977 143 SI WA HARRY 1976-12-18 09:00:00 TS -12.4672 94.4441 50 990 bom main 1289 1289 P_____O__PP_P_ SH031977 -12.5097 94.3250 -1 -12.5000 94.4000 30 50 990 3.50000 -12.5597 94.4901 TC 47 989 -12.4869 94.3571 1 -12.2372 94.7674 TC 45 990 12 217
1976350S08103 1977 143 SI WA HARRY 1976-12-18 12:00:00 TS -12.9000 94.0167 45 992 bom main 1351 1351 O_____O__OO_O_ jtwc_sh SH031977 -12.9000 93.9000 -1 -13.0000 94.0000 30 45 992 3.00000 -13.0000 94.0000 TC 45 992 -12.9000 93.9000 1 -12.7000 94.4000 TC 45 991 13 241
1976350S08103 1977 143 SI WA HARRY 1976-12-18 15:00:00 TS -13.0730 93.3169 40 994 bom main 1418 1418 P_____O__PP_P_ SH031977 -13.0526 93.2172 -1 -13.1000 93.2000 30 40 994 3.00000 -13.1677 93.2597 TC 40 994 -13.1051 93.2325 1 -12.9601 93.7749 TC 45 991 15 260
1976350S08103 1977 143 SI WA HARRY 1976-12-18 18:00:00 TS -13.1512 92.5065 35 996 bom main 1468 1468 O_____O__OP_O_ jtwc_sh SH031977 -13.1000 92.4000 -1 -13.2000 92.4000 30 35 996 3.00000 -13.2000 92.4000 TC 35 996 -13.2069 92.4389 1 -13.1000 93.0000 TC 45 992 16 265
1976350S08103 1977 143 SI WA HARRY 1976-12-18 21:00:00 TS -13.2214 91.6764 30 998 bom main 1512 1512 P_____O__PP_P_ SH031977 -13.2001 91.5775 -1 -13.2000 91.6000 20 30 998 2.50000 -13.2503 91.5324 TC 32 998 -13.2551 91.6010 1 -13.2227 92.1700 TC 42 993 16 265
1976350S08103 1977 143 SI WA HARRY 1976-12-19 00:00:00 TS -13.3000 90.9000 30 1000 bom main 1570 1570 O_____O__OO_O_ jtwc_sh SH031977 -13.3000 90.8000 -1 -13.3000 90.8000 20 30 1000 2.50000 -13.3000 90.8000 TC 30 1000 -13.3000 90.8000 1 -13.3000 91.4000 TC 40 994 13 263
1976350S08103 1977 143 SI WA HARRY 1976-12-19 03:00:00 TS -13.3864 90.3745 30 1000 bom main 1610 1610 P_____O__PP_P_ SH031977 -13.3921 90.1699 -1 -13.4000 90.4000 20 30 1000 2.50000 -13.3842 90.4498 TC 30 1000 -13.4085 90.1575 1 -13.3418 90.8997 TC 40 994 10 259
1976350S08103 1977 143 SI MM HARRY 1976-12-19 06:00:00 TS -13.4876 89.8937 30 1000 bom main 1652 1652 O_____O__OP_O_ jtwc_sh SH031977 -13.5000 89.6000 -1 -13.5000 90.1000 20 30 1000 2.50000 -13.5000 90.1000 TC 30 1000 -13.5259 89.5620 1 -13.4000 90.4000 TC 40 995 12 258
1976350S08103 1977 143 SI MM HARRY 1976-12-19 09:00:00 TS -13.6389 89.1256 30 1000 bom main 1715 1715 P_____O__PP_P_ SH031977 -13.6423 89.0075 -1 -13.7000 88.8000 20 30 1000 2.50000 -13.6505 89.3452 TC 30 1000 -13.6554 88.9855 1 -13.5429 89.6077 TC 37 995 14 258
1976350S08103 1977 143 SI MM HARRY 1976-12-19 12:00:00 TS -13.7833 88.5000 30 1000 bom main 1774 1774 O_____O__OO_O_ jtwc_sh SH031977 -13.8000 88.4000 -1 -13.8000 88.5000 20 30 1000 2.50000 -13.8000 88.5000 TC 30 1000 -13.8000 88.4000 1 -13.7000 88.8000 TC 35 996 13 258
1976350S08103 1977 143 SI MM HARRY 1976-12-19 15:00:00 TS -13.9009 87.8549 30 1000 bom main 1825 1825 P_____O__PP_P_ SH031977 -13.9424 87.7574 -1 -13.9000 87.8000 20 30 1000 2.50000 -13.8846 87.8272 TC 30 1000 -13.9441 87.7599 1 -13.7920 88.2272 TC 35 996 13 258
1976350S08103 1977 143 SI MM HARRY 1976-12-19 18:00:00 TS -14.0341 87.2345 30 1001 bom main 1885 1885 O_____O__OP_O_ jtwc_sh SH031977 -14.1000 87.1000 -1 -14.0000 87.2000 20 30 1001 2.50000 -14.0000 87.2000 TC 30 1001 -14.1047 87.1069 1 -13.9000 87.7000 TC 35 997 13 255
1976350S08103 1977 143 SI MM HARRY 1976-12-19 21:00:00 TS -14.2245 86.5800 30 1001 bom main 1947 1947 P_____O__PP_P_ SH031977 -14.2849 86.4424 -1 -14.2000 86.5000 20 30 1001 2.50000 -14.2197 86.5649 TC 27 1001 -14.2879 86.4504 1 -14.0698 87.0798 TC 32 998 13 251
1976350S08103 1977 143 SI MM HARRY 1976-12-20 00:00:00 TS -14.4667 85.9333 30 1002 bom main 2024 2024 O_____O__OO_O_ jtwc_sh SH031977 -14.5000 85.8000 -1 -14.5000 85.9000 20 30 1002 2.50000 -14.5000 85.9000 TC 25 1002 -14.5000 85.8000 1 -14.3000 86.4000 TC 30 999 14 249
1976350S08103 1977 143 SI MM HARRY 1976-12-20 03:00:00 TS -14.7287 85.2305 30 1002 bom main 2094 2094 P_____O__PP_P_ SH031977 -14.7347 85.1998 -1 -14.8000 85.0000 20 30 1002 2.50000 -14.7925 85.1500 TC 25 1002 -14.7250 85.1833 1 -14.5850 85.6501 TC 30 999 14 247
1976350S08103 1977 143 SI MM HARRY 1976-12-20 06:00:00 TS -15.0135 84.5785 30 1002 bom main 2164 2164 O_____O__OP_O_ jtwc_sh SH031977 -15.0000 84.6000 -1 -15.1000 84.4000 20 30 1002 2.50000 -15.1000 84.4000 TC 25 1002 -14.9812 84.5712 1 -14.9000 84.9000 TC 30 1000 14 245
1976350S08103 1977 143 SI MM HARRY 1976-12-20 09:00:00 TS -15.3068 83.9221 25 1002 bom main 2243 2243 P_____O__PP_P_ SH031977 -15.2848 83.9648 -1 -15.4000 83.7000 20 25 1002 2.00000 -15.3997 83.7273 TC 25 1002 -15.2718 83.9485 1 -15.1997 84.2273 TC 27 1001 14 244
1976350S08103 1977 143 SI MM HARRY 1976-12-20 12:00:00 TS -15.6217 83.2696 25 1003 bom main 2313 2313 O_____O__OO_O_ jtwc_sh SH031977 -15.6000 83.3000 -1 -15.7000 83.1000 20 25 1003 2.00000 -15.7000 83.1000 TC 25 1003 -15.6000 83.3000 1 -15.5000 83.6000 TC 25 1002 14 243
1976350S08103 1977 143 SI MM HARRY 1976-12-20 15:00:00 TS -15.9479 82.6101 25 1004 bom main 2392 2392 P_____O__PP_P_ SH031977 -15.9273 82.6146 -1 -16.0000 82.5000 20 25 1004 2.00000 -15.9921 82.5146 TC 22 1004 -15.9665 82.6141 1 -15.8003 82.9954 TC 22 1003 15 242
1976350S08103 1977 143 SI MM HARRY 1976-12-20 18:00:00 TS -16.2992 81.9305 25 1005 bom main 2478 2478 O_____O__OP_O_ jtwc_sh SH031977 -16.3000 81.9000 -1 -16.3000 81.9000 20 25 1005 1.50000 -16.3000 81.9000 TC 20 1005 -16.3626 81.8958 1 -16.1000 82.4000 TC 20 1004 16 242
1976350S08103 1977 143 SI MM HARRY 1976-12-20 21:00:00 TS -16.6969 81.1709 25 1006 bom main 2498 2405 P_____O__PP___ SH031977 -16.7331 81.1584 -1 -16.6000 81.2000 20 25 1006 1.50000 -16.6408 81.1833 TC 17 1007 -16.7774 81.1545 1 TC 17 241
1976350S08103 1977 143 SI MM HARRY 1976-12-21 00:00:00 TS -17.1200 80.4000 20 1009 bom main 2405 O_____O__OO___ jtwc_sh SH031977 -17.2000 80.4000 -1 -17.0000 80.4000 20 20 1009 1.00000 -17.0000 80.4000 TC 15 1009 -17.2000 80.4000 1 17 240

About IBTrACS Database

This database is a web-friendly format of International Best Track Archive for Climate Stewardship (IBTrACS), a global best track data archive curated by NOAA dating back to 1842.

Updated: 2021-11-26